sensor_id;sensor_type;location;lat;lon;timestamp;P1;durP1;ratioP1;P2;durP2;ratioP2
46731;SDS011;32477;51.474;5.696;2023-03-23T00:02:24;6.13;;;3.28;;
46731;SDS011;32477;51.474;5.696;2023-03-23T00:04:51;6.90;;;2.80;;
46731;SDS011;32477;51.474;5.696;2023-03-23T00:07:18;5.45;;;2.67;;
46731;SDS011;32477;51.474;5.696;2023-03-23T00:09:48;4.38;;;2.40;;
46731;SDS011;32477;51.474;5.696;2023-03-23T00:12:22;5.88;;;3.17;;
46731;SDS011;32477;51.474;5.696;2023-03-23T00:15:05;4.63;;;2.85;;
46731;SDS011;32477;51.474;5.696;2023-03-23T00:17:32;7.28;;;3.10;;
46731;SDS011;32477;51.474;5.696;2023-03-23T00:19:59;10.70;;;3.05;;
46731;SDS011;32477;51.474;5.696;2023-03-23T00:22:26;4.45;;;3.00;;
46731;SDS011;32477;51.474;5.696;2023-03-23T00:24:53;7.57;;;2.95;;
46731;SDS011;32477;51.474;5.696;2023-03-23T00:27:19;6.93;;;2.60;;
46731;SDS011;32477;51.474;5.696;2023-03-23T00:29:49;6.53;;;2.72;;
46731;SDS011;32477;51.474;5.696;2023-03-23T00:32:18;12.05;;;3.20;;
46731;SDS011;32477;51.474;5.696;2023-03-23T00:34:46;6.15;;;3.40;;
46731;SDS011;32477;51.474;5.696;2023-03-23T00:37:13;7.47;;;3.20;;
46731;SDS011;32477;51.474;5.696;2023-03-23T00:39:41;9.15;;;2.88;;
46731;SDS011;32477;51.474;5.696;2023-03-23T00:42:09;6.35;;;2.65;;
46731;SDS011;32477;51.474;5.696;2023-03-23T00:44:35;5.65;;;3.33;;
46731;SDS011;32477;51.474;5.696;2023-03-23T00:47:01;6.40;;;3.35;;
46731;SDS011;32477;51.474;5.696;2023-03-23T00:49:28;5.15;;;2.42;;
46731;SDS011;32477;51.474;5.696;2023-03-23T00:51:55;7.28;;;3.08;;
46731;SDS011;32477;51.474;5.696;2023-03-23T00:54:22;7.07;;;2.90;;
46731;SDS011;32477;51.474;5.696;2023-03-23T00:56:49;7.20;;;3.28;;
46731;SDS011;32477;51.474;5.696;2023-03-23T00:59:16;6.57;;;2.85;;
46731;SDS011;32477;51.474;5.696;2023-03-23T01:01:41;5.47;;;2.50;;
46731;SDS011;32477;51.474;5.696;2023-03-23T01:04:07;8.25;;;2.65;;
46731;SDS011;32477;51.474;5.696;2023-03-23T01:06:37;7.00;;;2.88;;
46731;SDS011;32477;51.474;5.696;2023-03-23T01:09:14;6.13;;;2.40;;
46731;SDS011;32477;51.474;5.696;2023-03-23T01:11:44;6.80;;;2.80;;
46731;SDS011;32477;51.474;5.696;2023-03-23T01:14:12;6.55;;;2.75;;
46731;SDS011;32477;51.474;5.696;2023-03-23T01:16:39;6.57;;;2.65;;
46731;SDS011;32477;51.474;5.696;2023-03-23T01:19:05;8.82;;;4.60;;
46731;SDS011;32477;51.474;5.696;2023-03-23T01:21:31;4.28;;;2.50;;
46731;SDS011;32477;51.474;5.696;2023-03-23T01:23:57;12.98;;;3.70;;
46731;SDS011;32477;51.474;5.696;2023-03-23T01:26:24;7.82;;;3.30;;
46731;SDS011;32477;51.474;5.696;2023-03-23T01:28:51;4.82;;;2.83;;
46731;SDS011;32477;51.474;5.696;2023-03-23T01:31:21;5.85;;;3.20;;
46731;SDS011;32477;51.474;5.696;2023-03-23T01:33:50;6.13;;;3.03;;
46731;SDS011;32477;51.474;5.696;2023-03-23T01:36:18;7.28;;;2.92;;
46731;SDS011;32477;51.474;5.696;2023-03-23T01:38:45;4.47;;;3.25;;
46731;SDS011;32477;51.474;5.696;2023-03-23T01:41:12;10.07;;;2.60;;
46731;SDS011;32477;51.474;5.696;2023-03-23T01:46:32;4.22;;;2.67;;
46731;SDS011;32477;51.474;5.696;2023-03-23T01:49:01;7.07;;;3.13;;
46731;SDS011;32477;51.474;5.696;2023-03-23T01:51:34;4.18;;;2.35;;
46731;SDS011;32477;51.474;5.696;2023-03-23T01:54:06;9.18;;;3.35;;
46731;SDS011;32477;51.474;5.696;2023-03-23T01:56:36;6.57;;;2.92;;
46731;SDS011;32477;51.474;5.696;2023-03-23T02:01:36;7.05;;;2.88;;
46731;SDS011;32477;51.474;5.696;2023-03-23T02:04:04;7.10;;;3.00;;
46731;SDS011;32477;51.474;5.696;2023-03-23T02:06:30;4.78;;;2.75;;
46731;SDS011;32477;51.474;5.696;2023-03-23T02:08:56;5.28;;;2.85;;
46731;SDS011;32477;51.474;5.696;2023-03-23T02:11:23;6.82;;;3.20;;
46731;SDS011;32477;51.474;5.696;2023-03-23T02:13:49;8.27;;;3.17;;
46731;SDS011;32477;51.474;5.696;2023-03-23T02:16:33;6.60;;;2.90;;
46731;SDS011;32477;51.474;5.696;2023-03-23T02:19:30;5.13;;;3.00;;
46731;SDS011;32477;51.474;5.696;2023-03-23T02:35:45;8.25;;;3.17;;
46731;SDS011;32477;51.474;5.696;2023-03-23T02:38:14;8.25;;;2.92;;
46731;SDS011;32477;51.474;5.696;2023-03-23T02:40:51;9.00;;;3.42;;
46731;SDS011;32477;51.474;5.696;2023-03-23T02:43:20;6.32;;;2.75;;
46731;SDS011;32477;51.474;5.696;2023-03-23T02:45:49;7.03;;;3.20;;
46731;SDS011;32477;51.474;5.696;2023-03-23T02:48:16;6.75;;;3.00;;
46731;SDS011;32477;51.474;5.696;2023-03-23T02:50:47;7.45;;;3.13;;
46731;SDS011;32477;51.474;5.696;2023-03-23T02:53:17;9.05;;;3.42;;
46731;SDS011;32477;51.474;5.696;2023-03-23T02:55:46;9.60;;;3.10;;
46731;SDS011;32477;51.474;5.696;2023-03-23T02:58:13;7.93;;;3.22;;
46731;SDS011;32477;51.474;5.696;2023-03-23T03:00:40;7.38;;;3.22;;
46731;SDS011;32477;51.474;5.696;2023-03-23T03:03:09;3.92;;;2.53;;
46731;SDS011;32477;51.474;5.696;2023-03-23T03:05:43;6.75;;;3.40;;
46731;SDS011;32477;51.474;5.696;2023-03-23T03:11:11;5.50;;;3.13;;
46731;SDS011;32477;51.474;5.696;2023-03-23T03:13:53;8.85;;;3.38;;
46731;SDS011;32477;51.474;5.696;2023-03-23T03:18:57;7.25;;;2.97;;
46731;SDS011;32477;51.474;5.696;2023-03-23T03:21:28;4.32;;;3.10;;
46731;SDS011;32477;51.474;5.696;2023-03-23T03:23:56;5.68;;;3.42;;
46731;SDS011;32477;51.474;5.696;2023-03-23T03:26:26;4.63;;;2.92;;
46731;SDS011;32477;51.474;5.696;2023-03-23T03:28:53;5.38;;;3.03;;
46731;SDS011;32477;51.474;5.696;2023-03-23T03:31:29;6.35;;;3.42;;
46731;SDS011;32477;51.474;5.696;2023-03-23T03:33:58;5.28;;;3.22;;
46731;SDS011;32477;51.474;5.696;2023-03-23T03:36:27;12.15;;;3.38;;
46731;SDS011;32477;51.474;5.696;2023-03-23T03:38:59;6.13;;;3.22;;
46731;SDS011;32477;51.474;5.696;2023-03-23T03:41:37;7.70;;;3.85;;
46731;SDS011;32477;51.474;5.696;2023-03-23T03:44:04;7.68;;;3.40;;
46731;SDS011;32477;51.474;5.696;2023-03-23T03:46:31;5.28;;;3.50;;
46731;SDS011;32477;51.474;5.696;2023-03-23T03:48:58;7.28;;;3.45;;
46731;SDS011;32477;51.474;5.696;2023-03-23T03:51:25;5.60;;;3.10;;
46731;SDS011;32477;51.474;5.696;2023-03-23T03:53:52;8.45;;;3.20;;
46731;SDS011;32477;51.474;5.696;2023-03-23T03:56:17;7.88;;;3.30;;
46731;SDS011;32477;51.474;5.696;2023-03-23T03:58:44;4.82;;;3.05;;
46731;SDS011;32477;51.474;5.696;2023-03-23T04:01:10;8.05;;;3.15;;
46731;SDS011;32477;51.474;5.696;2023-03-23T04:03:36;4.60;;;2.70;;
46731;SDS011;32477;51.474;5.696;2023-03-23T04:06:02;7.20;;;3.15;;
46731;SDS011;32477;51.474;5.696;2023-03-23T04:08:28;12.23;;;3.13;;
46731;SDS011;32477;51.474;5.696;2023-03-23T04:10:54;4.32;;;2.40;;
46731;SDS011;32477;51.474;5.696;2023-03-23T04:13:20;6.32;;;2.75;;
46731;SDS011;32477;51.474;5.696;2023-03-23T04:15:49;6.60;;;2.38;;
46731;SDS011;32477;51.474;5.696;2023-03-23T04:18:15;6.75;;;3.03;;
46731;SDS011;32477;51.474;5.696;2023-03-23T04:20:43;4.85;;;2.38;;
46731;SDS011;32477;51.474;5.696;2023-03-23T04:23:12;6.05;;;2.28;;
46731;SDS011;32477;51.474;5.696;2023-03-23T04:25:39;8.50;;;2.28;;
46731;SDS011;32477;51.474;5.696;2023-03-23T04:28:08;12.35;;;2.42;;
46731;SDS011;32477;51.474;5.696;2023-03-23T04:30:35;5.47;;;2.10;;
46731;SDS011;32477;51.474;5.696;2023-03-23T04:33:01;10.65;;;1.95;;
46731;SDS011;32477;51.474;5.696;2023-03-23T04:35:27;3.90;;;1.63;;
46731;SDS011;32477;51.474;5.696;2023-03-23T04:37:54;5.75;;;2.00;;
46731;SDS011;32477;51.474;5.696;2023-03-23T04:40:21;4.97;;;2.28;;
46731;SDS011;32477;51.474;5.696;2023-03-23T04:42:48;6.60;;;2.20;;
46731;SDS011;32477;51.474;5.696;2023-03-23T04:45:18;11.15;;;2.00;;
46731;SDS011;32477;51.474;5.696;2023-03-23T04:47:46;8.57;;;2.08;;
46731;SDS011;32477;51.474;5.696;2023-03-23T04:50:22;9.15;;;2.90;;
46731;SDS011;32477;51.474;5.696;2023-03-23T04:52:49;7.28;;;1.50;;
46731;SDS011;32477;51.474;5.696;2023-03-23T04:55:16;5.18;;;1.90;;
46731;SDS011;32477;51.474;5.696;2023-03-23T04:57:42;8.90;;;2.20;;
46731;SDS011;32477;51.474;5.696;2023-03-23T05:00:09;13.18;;;2.25;;
46731;SDS011;32477;51.474;5.696;2023-03-23T05:02:41;10.88;;;2.17;;
46731;SDS011;32477;51.474;5.696;2023-03-23T05:05:08;6.25;;;2.00;;
46731;SDS011;32477;51.474;5.696;2023-03-23T05:07:36;9.23;;;2.17;;
46731;SDS011;32477;51.474;5.696;2023-03-23T05:10:06;10.38;;;1.92;;
46731;SDS011;32477;51.474;5.696;2023-03-23T05:12:33;7.68;;;2.15;;
46731;SDS011;32477;51.474;5.696;2023-03-23T05:14:59;5.95;;;2.03;;
46731;SDS011;32477;51.474;5.696;2023-03-23T05:17:25;3.63;;;1.60;;
46731;SDS011;32477;51.474;5.696;2023-03-23T05:19:51;5.95;;;1.77;;
46731;SDS011;32477;51.474;5.696;2023-03-23T05:22:17;4.18;;;1.60;;
46731;SDS011;32477;51.474;5.696;2023-03-23T05:24:45;8.00;;;2.20;;
46731;SDS011;32477;51.474;5.696;2023-03-23T05:27:12;6.30;;;1.90;;
46731;SDS011;32477;51.474;5.696;2023-03-23T05:29:39;3.35;;;1.52;;
46731;SDS011;32477;51.474;5.696;2023-03-23T05:32:08;7.40;;;2.00;;
46731;SDS011;32477;51.474;5.696;2023-03-23T05:34:34;7.40;;;1.80;;
46731;SDS011;32477;51.474;5.696;2023-03-23T05:37:01;7.63;;;2.00;;
46731;SDS011;32477;51.474;5.696;2023-03-23T05:39:28;11.65;;;2.70;;
46731;SDS011;32477;51.474;5.696;2023-03-23T05:41:54;11.07;;;2.58;;
46731;SDS011;32477;51.474;5.696;2023-03-23T05:44:20;4.70;;;2.65;;
46731;SDS011;32477;51.474;5.696;2023-03-23T05:46:46;7.90;;;3.10;;
46731;SDS011;32477;51.474;5.696;2023-03-23T05:49:13;11.80;;;3.20;;
46731;SDS011;32477;51.474;5.696;2023-03-23T05:51:41;12.23;;;2.97;;
46731;SDS011;32477;51.474;5.696;2023-03-23T05:54:07;8.38;;;3.03;;
46731;SDS011;32477;51.474;5.696;2023-03-23T05:56:33;8.82;;;2.42;;
46731;SDS011;32477;51.474;5.696;2023-03-23T05:58:59;7.25;;;3.00;;
46731;SDS011;32477;51.474;5.696;2023-03-23T06:01:25;7.13;;;2.53;;
46731;SDS011;32477;51.474;5.696;2023-03-23T06:03:51;8.90;;;3.30;;
46731;SDS011;32477;51.474;5.696;2023-03-23T06:06:22;10.25;;;2.75;;
46731;SDS011;32477;51.474;5.696;2023-03-23T06:08:48;25.95;;;3.85;;
46731;SDS011;32477;51.474;5.696;2023-03-23T06:11:15;8.35;;;2.58;;
46731;SDS011;32477;51.474;5.696;2023-03-23T06:13:41;11.50;;;3.05;;
46731;SDS011;32477;51.474;5.696;2023-03-23T06:16:07;6.93;;;2.50;;
46731;SDS011;32477;51.474;5.696;2023-03-23T06:18:33;12.00;;;2.70;;
46731;SDS011;32477;51.474;5.696;2023-03-23T06:21:01;9.25;;;2.20;;
46731;SDS011;32477;51.474;5.696;2023-03-23T06:23:28;10.10;;;3.80;;
46731;SDS011;32477;51.474;5.696;2023-03-23T06:25:56;9.25;;;2.03;;
46731;SDS011;32477;51.474;5.696;2023-03-23T06:28:24;19.20;;;3.17;;
46731;SDS011;32477;51.474;5.696;2023-03-23T06:30:50;7.25;;;2.10;;
46731;SDS011;32477;51.474;5.696;2023-03-23T06:33:15;13.77;;;3.17;;
46731;SDS011;32477;51.474;5.696;2023-03-23T06:35:42;8.50;;;2.22;;
46731;SDS011;32477;51.474;5.696;2023-03-23T06:38:08;10.45;;;2.45;;
46731;SDS011;32477;51.474;5.696;2023-03-23T06:40:34;9.90;;;2.28;;
46731;SDS011;32477;51.474;5.696;2023-03-23T06:43:03;5.05;;;2.30;;
46731;SDS011;32477;51.474;5.696;2023-03-23T06:45:29;6.93;;;2.25;;
46731;SDS011;32477;51.474;5.696;2023-03-23T06:47:56;13.93;;;2.60;;
46731;SDS011;32477;51.474;5.696;2023-03-23T06:50:22;9.00;;;1.95;;
46731;SDS011;32477;51.474;5.696;2023-03-23T06:52:48;8.77;;;2.33;;
46731;SDS011;32477;51.474;5.696;2023-03-23T06:55:16;13.40;;;2.05;;
46731;SDS011;32477;51.474;5.696;2023-03-23T06:57:42;5.22;;;2.10;;
46731;SDS011;32477;51.474;5.696;2023-03-23T07:00:09;9.98;;;1.52;;
46731;SDS011;32477;51.474;5.696;2023-03-23T07:02:39;9.57;;;1.58;;
46731;SDS011;32477;51.474;5.696;2023-03-23T07:05:05;7.72;;;1.83;;
46731;SDS011;32477;51.474;5.696;2023-03-23T07:07:32;10.00;;;2.08;;
46731;SDS011;32477;51.474;5.696;2023-03-23T07:09:58;10.25;;;1.77;;
46731;SDS011;32477;51.474;5.696;2023-03-23T07:12:24;11.32;;;1.35;;
46731;SDS011;32477;51.474;5.696;2023-03-23T07:14:49;8.95;;;1.80;;
46731;SDS011;32477;51.474;5.696;2023-03-23T07:17:15;7.72;;;1.98;;
46731;SDS011;32477;51.474;5.696;2023-03-23T07:19:41;5.88;;;1.83;;
46731;SDS011;32477;51.474;5.696;2023-03-23T07:22:07;6.20;;;1.65;;
46731;SDS011;32477;51.474;5.696;2023-03-23T07:24:34;6.55;;;2.00;;
46731;SDS011;32477;51.474;5.696;2023-03-23T07:27:00;2.78;;;1.50;;
46731;SDS011;32477;51.474;5.696;2023-03-23T07:29:26;9.02;;;2.35;;
46731;SDS011;32477;51.474;5.696;2023-03-23T07:31:52;10.23;;;2.20;;
46731;SDS011;32477;51.474;5.696;2023-03-23T07:34:18;6.70;;;2.28;;
46731;SDS011;32477;51.474;5.696;2023-03-23T07:36:45;8.07;;;2.90;;
46731;SDS011;32477;51.474;5.696;2023-03-23T07:39:11;8.23;;;2.00;;
46731;SDS011;32477;51.474;5.696;2023-03-23T07:41:38;8.63;;;1.77;;
46731;SDS011;32477;51.474;5.696;2023-03-23T07:44:04;4.40;;;1.80;;
46731;SDS011;32477;51.474;5.696;2023-03-23T07:46:30;11.10;;;2.10;;
46731;SDS011;32477;51.474;5.696;2023-03-23T07:48:56;9.23;;;2.28;;
46731;SDS011;32477;51.474;5.696;2023-03-23T07:51:23;9.85;;;2.80;;
46731;SDS011;32477;51.474;5.696;2023-03-23T07:53:49;13.15;;;2.88;;
46731;SDS011;32477;51.474;5.696;2023-03-23T07:56:16;11.85;;;3.03;;
46731;SDS011;32477;51.474;5.696;2023-03-23T07:58:47;10.88;;;2.80;;
46731;SDS011;32477;51.474;5.696;2023-03-23T08:01:14;6.60;;;2.30;;
46731;SDS011;32477;51.474;5.696;2023-03-23T08:03:40;3.80;;;1.70;;
46731;SDS011;32477;51.474;5.696;2023-03-23T08:06:07;6.07;;;1.33;;
46731;SDS011;32477;51.474;5.696;2023-03-23T08:08:33;2.47;;;0.82;;
46731;SDS011;32477;51.474;5.696;2023-03-23T08:11:00;3.22;;;1.45;;
46731;SDS011;32477;51.474;5.696;2023-03-23T08:13:26;2.42;;;1.10;;
46731;SDS011;32477;51.474;5.696;2023-03-23T08:15:52;3.72;;;1.30;;
46731;SDS011;32477;51.474;5.696;2023-03-23T08:18:18;11.18;;;1.45;;
46731;SDS011;32477;51.474;5.696;2023-03-23T08:20:44;1.88;;;0.98;;
46731;SDS011;32477;51.474;5.696;2023-03-23T08:23:10;3.47;;;1.17;;
46731;SDS011;32477;51.474;5.696;2023-03-23T08:25:35;4.03;;;1.58;;
46731;SDS011;32477;51.474;5.696;2023-03-23T08:28:01;4.43;;;1.33;;
46731;SDS011;32477;51.474;5.696;2023-03-23T08:30:28;3.70;;;0.95;;
46731;SDS011;32477;51.474;5.696;2023-03-23T08:32:55;6.95;;;1.33;;
46731;SDS011;32477;51.474;5.696;2023-03-23T08:35:22;8.82;;;0.88;;
46731;SDS011;32477;51.474;5.696;2023-03-23T08:37:48;4.95;;;1.25;;
46731;SDS011;32477;51.474;5.696;2023-03-23T08:40:19;6.47;;;1.15;;
46731;SDS011;32477;51.474;5.696;2023-03-23T08:42:47;5.88;;;1.33;;
46731;SDS011;32477;51.474;5.696;2023-03-23T08:45:16;3.10;;;1.05;;
46731;SDS011;32477;51.474;5.696;2023-03-23T08:47:43;2.80;;;0.98;;
46731;SDS011;32477;51.474;5.696;2023-03-23T08:50:11;6.45;;;1.60;;
46731;SDS011;32477;51.474;5.696;2023-03-23T08:52:38;3.28;;;0.82;;
46731;SDS011;32477;51.474;5.696;2023-03-23T08:55:04;3.80;;;1.10;;
46731;SDS011;32477;51.474;5.696;2023-03-23T08:57:33;3.22;;;1.17;;
46731;SDS011;32477;51.474;5.696;2023-03-23T09:00:00;6.38;;;1.20;;
46731;SDS011;32477;51.474;5.696;2023-03-23T09:02:38;4.28;;;0.80;;
46731;SDS011;32477;51.474;5.696;2023-03-23T09:05:05;5.90;;;1.17;;
46731;SDS011;32477;51.474;5.696;2023-03-23T09:07:32;3.55;;;1.00;;
46731;SDS011;32477;51.474;5.696;2023-03-23T09:09:58;4.07;;;1.13;;
46731;SDS011;32477;51.474;5.696;2023-03-23T09:12:23;3.15;;;1.48;;
46731;SDS011;32477;51.474;5.696;2023-03-23T09:14:49;2.50;;;0.93;;
46731;SDS011;32477;51.474;5.696;2023-03-23T09:17:15;2.72;;;0.90;;
46731;SDS011;32477;51.474;5.696;2023-03-23T09:19:41;3.65;;;0.75;;
46731;SDS011;32477;51.474;5.696;2023-03-23T09:22:06;2.97;;;0.95;;
46731;SDS011;32477;51.474;5.696;2023-03-23T09:24:33;4.30;;;1.20;;
46731;SDS011;32477;51.474;5.696;2023-03-23T09:26:59;3.97;;;1.10;;
46731;SDS011;32477;51.474;5.696;2023-03-23T09:29:25;4.90;;;1.77;;
46731;SDS011;32477;51.474;5.696;2023-03-23T09:31:52;3.70;;;0.80;;
46731;SDS011;32477;51.474;5.696;2023-03-23T09:34:19;5.05;;;0.85;;
46731;SDS011;32477;51.474;5.696;2023-03-23T09:36:45;2.85;;;0.98;;
46731;SDS011;32477;51.474;5.696;2023-03-23T09:39:11;2.75;;;1.10;;
46731;SDS011;32477;51.474;5.696;2023-03-23T09:47:20;6.10;;;1.10;;
46731;SDS011;32477;51.474;5.696;2023-03-23T09:49:34;2.80;;;1.00;;
46731;SDS011;32477;51.474;5.696;2023-03-23T09:52:10;1.52;;;0.90;;
46731;SDS011;32477;51.474;5.696;2023-03-23T09:54:40;4.05;;;1.02;;
46731;SDS011;32477;51.474;5.696;2023-03-23T09:57:12;3.00;;;1.20;;
46731;SDS011;32477;51.474;5.696;2023-03-23T10:02:34;5.18;;;1.17;;
46731;SDS011;32477;51.474;5.696;2023-03-23T10:05:29;2.87;;;0.73;;
46731;SDS011;32477;51.474;5.696;2023-03-23T10:07:57;2.13;;;0.93;;
46731;SDS011;32477;51.474;5.696;2023-03-23T10:10:29;6.63;;;1.45;;
46731;SDS011;32477;51.474;5.696;2023-03-23T10:13:04;5.18;;;1.45;;
46731;SDS011;32477;51.474;5.696;2023-03-23T10:15:47;5.38;;;1.40;;
46731;SDS011;32477;51.474;5.696;2023-03-23T10:18:20;1.75;;;0.90;;
46731;SDS011;32477;51.474;5.696;2023-03-23T10:21:01;8.38;;;2.03;;
46731;SDS011;32477;51.474;5.696;2023-03-23T10:26:37;7.60;;;1.83;;
46731;SDS011;32477;51.474;5.696;2023-03-23T10:29:15;6.03;;;1.67;;
46731;SDS011;32477;51.474;5.696;2023-03-23T10:32:35;8.20;;;1.48;;
46731;SDS011;32477;51.474;5.696;2023-03-23T10:34:47;3.22;;;1.10;;
46731;SDS011;32477;51.474;5.696;2023-03-23T10:37:21;6.95;;;2.13;;
46731;SDS011;32477;51.474;5.696;2023-03-23T10:39:55;9.02;;;1.60;;
46731;SDS011;32477;51.474;5.696;2023-03-23T10:44:57;10.73;;;1.80;;
46731;SDS011;32477;51.474;5.696;2023-03-23T10:47:25;5.65;;;1.67;;
46731;SDS011;32477;51.474;5.696;2023-03-23T10:49:56;7.97;;;1.45;;
46731;SDS011;32477;51.474;5.696;2023-03-23T10:52:35;8.98;;;1.73;;
46731;SDS011;32477;51.474;5.696;2023-03-23T10:57:32;5.93;;;0.88;;
46731;SDS011;32477;51.474;5.696;2023-03-23T11:02:38;5.38;;;1.30;;
46731;SDS011;32477;51.474;5.696;2023-03-23T11:05:14;7.82;;;1.23;;
46731;SDS011;32477;51.474;5.696;2023-03-23T11:08:03;5.90;;;1.52;;
46731;SDS011;32477;51.474;5.696;2023-03-23T11:10:47;7.50;;;1.38;;
46731;SDS011;32477;51.474;5.696;2023-03-23T11:13:16;5.20;;;1.00;;
46731;SDS011;32477;51.474;5.696;2023-03-23T11:15:44;5.40;;;1.58;;
46731;SDS011;32477;51.474;5.696;2023-03-23T11:18:24;2.85;;;1.23;;
46731;SDS011;32477;51.474;5.696;2023-03-23T11:20:59;8.13;;;0.93;;
46731;SDS011;32477;51.474;5.696;2023-03-23T11:26:28;3.97;;;0.82;;
46731;SDS011;32477;51.474;5.696;2023-03-23T11:29:14;3.25;;;0.90;;
46731;SDS011;32477;51.474;5.696;2023-03-23T11:31:53;3.33;;;0.90;;
46731;SDS011;32477;51.474;5.696;2023-03-23T11:34:32;5.43;;;1.48;;
46731;SDS011;32477;51.474;5.696;2023-03-23T11:37:11;4.28;;;1.13;;
46731;SDS011;32477;51.474;5.696;2023-03-23T11:45:17;8.98;;;1.20;;
46731;SDS011;32477;51.474;5.696;2023-03-23T11:50:23;3.60;;;1.50;;
46731;SDS011;32477;51.474;5.696;2023-03-23T11:58:13;3.97;;;0.90;;
46731;SDS011;32477;51.474;5.696;2023-03-23T12:00:57;7.78;;;1.42;;
46731;SDS011;32477;51.474;5.696;2023-03-23T12:14:56;2.78;;;1.30;;
46731;SDS011;32477;51.474;5.696;2023-03-23T12:29:15;5.15;;;1.38;;
46731;SDS011;32477;51.474;5.696;2023-03-23T12:40:39;4.88;;;1.45;;
46731;SDS011;32477;51.474;5.696;2023-03-23T12:48:57;3.78;;;1.48;;
46731;SDS011;32477;51.474;5.696;2023-03-23T12:51:32;5.30;;;1.67;;
46731;SDS011;32477;51.474;5.696;2023-03-23T12:57:36;7.35;;;1.73;;
46731;SDS011;32477;51.474;5.696;2023-03-23T13:03:19;5.15;;;1.33;;
46731;SDS011;32477;51.474;5.696;2023-03-23T13:11:37;4.43;;;1.50;;
46731;SDS011;32477;51.474;5.696;2023-03-23T13:16:55;7.47;;;1.83;;
46731;SDS011;32477;51.474;5.696;2023-03-23T13:22:50;7.85;;;1.95;;
46731;SDS011;32477;51.474;5.696;2023-03-23T13:28:25;6.25;;;1.50;;
46731;SDS011;32477;51.474;5.696;2023-03-23T13:31:15;7.65;;;2.10;;
46731;SDS011;32477;51.474;5.696;2023-03-23T13:33:48;7.93;;;1.60;;
46731;SDS011;32477;51.474;5.696;2023-03-23T13:36:17;14.02;;;2.42;;
46731;SDS011;32477;51.474;5.696;2023-03-23T13:38:49;7.57;;;1.92;;
46731;SDS011;32477;51.474;5.696;2023-03-23T13:41:17;6.65;;;2.08;;
46731;SDS011;32477;51.474;5.696;2023-03-23T13:43:46;6.65;;;1.73;;
46731;SDS011;32477;51.474;5.696;2023-03-23T13:46:23;9.55;;;2.55;;
46731;SDS011;32477;51.474;5.696;2023-03-23T13:54:12;8.52;;;2.45;;
46731;SDS011;32477;51.474;5.696;2023-03-23T14:01:51;10.10;;;2.92;;
46731;SDS011;32477;51.474;5.696;2023-03-23T14:04:22;11.35;;;3.20;;
46731;SDS011;32477;51.474;5.696;2023-03-23T14:06:56;10.48;;;3.03;;
46731;SDS011;32477;51.474;5.696;2023-03-23T14:09:34;7.25;;;3.53;;
46731;SDS011;32477;51.474;5.696;2023-03-23T14:12:05;13.52;;;3.30;;
46731;SDS011;32477;51.474;5.696;2023-03-23T14:14:44;12.82;;;4.43;;
46731;SDS011;32477;51.474;5.696;2023-03-23T14:17:13;9.80;;;3.80;;
46731;SDS011;32477;51.474;5.696;2023-03-23T14:19:54;28.23;;;3.20;;
46731;SDS011;32477;51.474;5.696;2023-03-23T14:22:27;12.23;;;2.47;;
46731;SDS011;32477;51.474;5.696;2023-03-23T14:25:14;12.15;;;2.97;;
46731;SDS011;32477;51.474;5.696;2023-03-23T14:27:42;16.42;;;3.80;;
46731;SDS011;32477;51.474;5.696;2023-03-23T14:30:12;12.63;;;3.28;;
46731;SDS011;32477;51.474;5.696;2023-03-23T14:32:43;11.35;;;2.42;;
46731;SDS011;32477;51.474;5.696;2023-03-23T14:35:14;8.57;;;2.33;;
46731;SDS011;32477;51.474;5.696;2023-03-23T14:37:56;14.02;;;2.80;;
46731;SDS011;32477;51.474;5.696;2023-03-23T14:40:25;7.80;;;2.33;;
46731;SDS011;32477;51.474;5.696;2023-03-23T14:42:52;13.25;;;2.83;;
46731;SDS011;32477;51.474;5.696;2023-03-23T14:45:20;11.05;;;2.13;;
46731;SDS011;32477;51.474;5.696;2023-03-23T14:47:56;17.77;;;2.72;;
46731;SDS011;32477;51.474;5.696;2023-03-23T14:50:31;8.30;;;2.50;;
46731;SDS011;32477;51.474;5.696;2023-03-23T14:53:10;9.40;;;2.55;;
46731;SDS011;32477;51.474;5.696;2023-03-23T14:55:45;11.10;;;3.25;;
46731;SDS011;32477;51.474;5.696;2023-03-23T14:58:13;14.02;;;3.97;;
46731;SDS011;32477;51.474;5.696;2023-03-23T15:00:45;15.90;;;3.25;;
46731;SDS011;32477;51.474;5.696;2023-03-23T15:03:19;16.02;;;3.10;;
46731;SDS011;32477;51.474;5.696;2023-03-23T15:05:48;10.40;;;2.90;;
46731;SDS011;32477;51.474;5.696;2023-03-23T15:08:25;12.45;;;2.88;;
46731;SDS011;32477;51.474;5.696;2023-03-23T15:13:32;14.93;;;2.72;;
46731;SDS011;32477;51.474;5.696;2023-03-23T15:16:07;11.70;;;3.00;;
46731;SDS011;32477;51.474;5.696;2023-03-23T15:18:39;11.77;;;3.55;;
46731;SDS011;32477;51.474;5.696;2023-03-23T15:21:32;11.77;;;2.55;;
46731;SDS011;32477;51.474;5.696;2023-03-23T15:23:59;8.38;;;2.60;;
46731;SDS011;32477;51.474;5.696;2023-03-23T15:26:43;9.60;;;2.72;;
46731;SDS011;32477;51.474;5.696;2023-03-23T15:31:53;11.07;;;2.85;;
46731;SDS011;32477;51.474;5.696;2023-03-23T15:34:24;7.72;;;1.90;;
46731;SDS011;32477;51.474;5.696;2023-03-23T15:36:54;11.45;;;2.45;;
46731;SDS011;32477;51.474;5.696;2023-03-23T15:39:25;8.55;;;2.40;;
46731;SDS011;32477;51.474;5.696;2023-03-23T15:41:53;8.45;;;2.10;;
46731;SDS011;32477;51.474;5.696;2023-03-23T15:44:21;8.35;;;2.53;;
46731;SDS011;32477;51.474;5.696;2023-03-23T15:47:15;17.23;;;3.50;;
46731;SDS011;32477;51.474;5.696;2023-03-23T15:49:44;16.15;;;5.85;;
46731;SDS011;32477;51.474;5.696;2023-03-23T15:52:10;11.52;;;3.08;;
46731;SDS011;32477;51.474;5.696;2023-03-23T15:54:37;18.30;;;4.00;;
46731;SDS011;32477;51.474;5.696;2023-03-23T15:57:04;11.18;;;3.78;;
46731;SDS011;32477;51.474;5.696;2023-03-23T15:59:30;18.80;;;6.78;;
46731;SDS011;32477;51.474;5.696;2023-03-23T16:01:55;12.77;;;4.43;;
46731;SDS011;32477;51.474;5.696;2023-03-23T16:04:21;10.50;;;3.92;;
46731;SDS011;32477;51.474;5.696;2023-03-23T16:06:47;13.45;;;3.17;;
46731;SDS011;32477;51.474;5.696;2023-03-23T16:09:17;11.93;;;2.92;;
46731;SDS011;32477;51.474;5.696;2023-03-23T16:11:44;13.75;;;3.08;;
46731;SDS011;32477;51.474;5.696;2023-03-23T16:14:10;11.65;;;2.90;;
46731;SDS011;32477;51.474;5.696;2023-03-23T16:16:46;12.18;;;3.85;;
46731;SDS011;32477;51.474;5.696;2023-03-23T16:19:14;9.52;;;3.25;;
46731;SDS011;32477;51.474;5.696;2023-03-23T16:21:40;9.35;;;2.67;;
46731;SDS011;32477;51.474;5.696;2023-03-23T16:24:06;7.32;;;2.67;;
46731;SDS011;32477;51.474;5.696;2023-03-23T16:26:33;13.43;;;3.17;;
46731;SDS011;32477;51.474;5.696;2023-03-23T16:28:59;24.58;;;3.55;;
46731;SDS011;32477;51.474;5.696;2023-03-23T16:31:26;5.57;;;2.63;;
46731;SDS011;32477;51.474;5.696;2023-03-23T16:33:53;14.07;;;3.17;;
46731;SDS011;32477;51.474;5.696;2023-03-23T16:36:19;12.63;;;2.97;;
46731;SDS011;32477;51.474;5.696;2023-03-23T16:38:44;12.48;;;3.08;;
46731;SDS011;32477;51.474;5.696;2023-03-23T16:41:10;16.20;;;3.25;;
46731;SDS011;32477;51.474;5.696;2023-03-23T16:43:36;17.80;;;2.92;;
46731;SDS011;32477;51.474;5.696;2023-03-23T16:46:01;13.88;;;3.10;;
46731;SDS011;32477;51.474;5.696;2023-03-23T16:48:27;11.73;;;2.92;;
46731;SDS011;32477;51.474;5.696;2023-03-23T16:50:53;10.20;;;3.10;;
46731;SDS011;32477;51.474;5.696;2023-03-23T16:53:19;12.52;;;2.42;;
46731;SDS011;32477;51.474;5.696;2023-03-23T16:55:46;8.82;;;2.35;;
46731;SDS011;32477;51.474;5.696;2023-03-23T16:58:12;17.30;;;2.92;;
46731;SDS011;32477;51.474;5.696;2023-03-23T17:00:39;11.15;;;3.28;;
46731;SDS011;32477;51.474;5.696;2023-03-23T17:03:05;19.08;;;3.28;;
46731;SDS011;32477;51.474;5.696;2023-03-23T17:05:31;11.73;;;3.00;;
46731;SDS011;32477;51.474;5.696;2023-03-23T17:07:57;9.52;;;2.60;;
46731;SDS011;32477;51.474;5.696;2023-03-23T17:10:24;7.68;;;2.28;;
46731;SDS011;32477;51.474;5.696;2023-03-23T17:12:52;20.13;;;3.28;;